Time;durP1;ratioP1;P1;durP2;ratioP2;P2;SDS_P1;SDS_P2;PMS_P1;PMS_P2;Temp;Humidity;BMP_temperature;BMP_pressure;BME280_temperature;BME280_humidity;BME280_pressure;Samples;Min_cycle;Max_cycle;Signal;HPM_P1;HPM_P2
2022/06/14 00:03:08;;;;;;;3.92;1.60;;;;;;;;;;5016032;28;20041;-86
2022/06/14 00:05:34;;;;;;;2.35;1.63;;;;;;;;;;5016337;28;20029;-86
2022/06/14 00:08:00;;;;;;;5.30;1.80;;;;;;;;;;5016254;28;20033;-86
2022/06/14 00:10:25;;;;;;;5.88;1.80;;;;;;;;;;5016083;28;20037;-86
2022/06/14 00:12:52;;;;;;;3.45;1.60;;;;;;;;;;5017250;28;20010;-86
2022/06/14 00:15:17;;;;;;;6.40;1.63;;;;;;;;;;4998623;28;20022;-86
2022/06/14 00:17:43;;;;;;;2.47;1.58;;;;;;;;;;5015632;28;20034;-86
2022/06/14 00:20:10;;;;;;;2.90;1.70;;;;;;;;;;5056293;22;20048;-86
2022/06/14 00:22:36;;;;;;;3.83;1.52;;;;;;;;;;5037136;28;20033;-86
2022/06/14 00:25:01;;;;;;;4.30;1.85;;;;;;;;;;5035201;28;20164;-85
2022/06/14 00:27:27;;;;;;;2.97;1.75;;;;;;;;;;5037333;28;20100;-85
2022/06/14 00:29:52;;;;;;;4.43;1.60;;;;;;;;;;5035820;28;20532;-86
2022/06/14 00:32:18;;;;;;;4.53;1.63;;;;;;;;;;5035269;28;20037;-84
2022/06/14 00:34:43;;;;;;;5.97;1.80;;;;;;;;;;5043650;28;20056;-86
2022/06/14 00:37:14;;;;;;;8.75;1.80;;;;;;;;;;5034993;28;20051;-85
2022/06/14 00:39:40;;;;;;;4.28;1.70;;;;;;;;;;5033173;28;20100;-86
2022/06/14 00:42:09;;;;;;;8.60;1.90;;;;;;;;;;5032070;28;20084;-85
2022/06/14 00:44:35;;;;;;;3.42;1.50;;;;;;;;;;5041190;28;20064;-86
2022/06/14 00:47:00;;;;;;;4.78;1.70;;;;;;;;;;5050468;28;20046;-86
2022/06/14 00:49:30;;;;;;;2.95;1.70;;;;;;;;;;5037145;28;20073;-85
2022/06/14 00:52:17;;;;;;;3.22;1.80;;;;;;;;;;5038155;28;20065;-85
2022/06/14 00:54:45;;;;;;;5.07;1.80;;;;;;;;;;5037501;28;20048;-86
2022/06/14 00:57:19;;;;;;;2.72;1.55;;;;;;;;;;5036900;28;20037;-86
2022/06/14 00:59:59;;;;;;;3.20;1.50;;;;;;;;;;5038345;28;20041;-86
2022/06/14 01:02:36;;;;;;;5.80;1.70;;;;;;;;;;5036718;28;20524;-86
2022/06/14 01:05:06;;;;;;;2.55;1.52;;;;;;;;;;5037427;28;20093;-86
2022/06/14 01:07:46;;;;;;;3.83;1.70;;;;;;;;;;5036795;28;20445;-86
2022/06/14 01:10:14;;;;;;;2.92;1.60;;;;;;;;;;5036894;28;20098;-86
2022/06/14 01:12:44;;;;;;;5.00;1.70;;;;;;;;;;5020352;28;20037;-86
2022/06/14 01:15:21;;;;;;;5.18;1.60;;;;;;;;;;5036938;28;20034;-85
2022/06/14 01:17:52;;;;;;;3.03;1.63;;;;;;;;;;5035922;28;20099;-86
2022/06/14 01:20:20;;;;;;;3.95;1.60;;;;;;;;;;5035685;28;20394;-86
2022/06/14 01:22:47;;;;;;;5.03;1.70;;;;;;;;;;5035855;28;20482;-86
2022/06/14 01:25:13;;;;;;;3.28;1.60;;;;;;;;;;5036530;28;20041;-85
2022/06/14 01:27:41;;;;;;;3.58;1.80;;;;;;;;;;5035222;28;20044;-84
2022/06/14 01:30:12;;;;;;;6.10;1.70;;;;;;;;;;5044617;28;20041;-87
2022/06/14 01:33:01;;;;;;;3.53;1.70;;;;;;;;;;5036377;28;20084;-86
2022/06/14 01:35:32;;;;;;;3.47;1.70;;;;;;;;;;5034948;28;20041;-86
2022/06/14 01:38:00;;;;;;;4.25;1.75;;;;;;;;;;5037979;28;20030;-86
2022/06/14 01:41:08;;;;;;;2.55;1.60;;;;;;;;;;5035431;28;20065;-85
2022/06/14 01:43:56;;;;;;;4.25;2.03;;;;;;;;;;5033919;28;20037;-83
2022/06/14 01:46:24;;;;;;;3.20;1.70;;;;;;;;;;5016698;28;20124;-85
2022/06/14 01:51:50;;;;;;;4.40;1.70;;;;;;;;;;5032867;28;20034;-85
2022/06/14 01:52:02;;;;;;;3.75;1.70;;;;;;;;;;5033389;28;20045;-86
2022/06/14 01:54:34;;;;;;;3.75;1.70;;;;;;;;;;5038263;28;20037;-86
2022/06/14 01:57:05;;;;;;;4.35;1.65;;;;;;;;;;5045022;28;20037;-86
2022/06/14 01:59:56;;;;;;;5.10;1.80;;;;;;;;;;5039753;28;20482;-86
2022/06/14 02:02:33;;;;;;;5.05;1.90;;;;;;;;;;5022676;28;20067;-86
2022/06/14 02:05:29;;;;;;;3.40;1.67;;;;;;;;;;5039750;28;20545;-86
2022/06/14 02:08:08;;;;;;;5.95;1.77;;;;;;;;;;5040457;28;20033;-86
2022/06/14 02:10:43;;;;;;;2.88;1.80;;;;;;;;;;5040618;28;20402;-82
2022/06/14 02:13:17;;;;;;;5.63;1.70;;;;;;;;;;5041007;28;20046;-85
2022/06/14 02:16:03;;;;;;;4.43;1.80;;;;;;;;;;5038512;28;20033;-85
2022/06/14 02:18:56;;;;;;;3.50;1.67;;;;;;;;;;5039548;28;20041;-86
2022/06/14 02:21:41;;;;;;;6.75;2.00;;;;;;;;;;5042236;28;20112;-86
2022/06/14 02:24:51;;;;;;;3.58;1.60;;;;;;;;;;5040145;28;20052;-84
2022/06/14 02:27:23;;;;;;;2.85;1.67;;;;;;;;;;5026471;28;20050;-87
2022/06/14 02:29:59;;;;;;;3.72;1.77;;;;;;;;;;4984966;28;20048;-86
2022/06/14 02:32:58;;;;;;;5.85;1.80;;;;;;;;;;5021145;28;20129;-86
2022/06/14 02:35:36;;;;;;;3.95;1.80;;;;;;;;;;5016564;28;20080;-85
2022/06/14 02:38:11;;;;;;;3.90;1.80;;;;;;;;;;5039524;28;20041;-85
2022/06/14 02:40:46;;;;;;;8.73;1.90;;;;;;;;;;5038056;28;20057;-85
2022/06/14 02:43:20;;;;;;;3.30;1.80;;;;;;;;;;5020777;28;20061;-85
2022/06/14 02:45:57;;;;;;;3.63;1.70;;;;;;;;;;5037073;28;20029;-86
2022/06/14 02:48:29;;;;;;;2.08;1.63;;;;;;;;;;5038195;28;20096;-85
2022/06/14 02:51:02;;;;;;;3.40;1.80;;;;;;;;;;5037974;28;20037;-86
2022/06/14 02:53:53;;;;;;;3.17;1.90;;;;;;;;;;5037360;28;20037;-85
2022/06/14 02:56:31;;;;;;;4.28;1.80;;;;;;;;;;5035805;28;20073;-85
2022/06/14 02:59:08;;;;;;;3.25;1.70;;;;;;;;;;5035249;28;20124;-84
2022/06/14 03:01:45;;;;;;;5.65;1.80;;;;;;;;;;5035974;28;20040;-81
2022/06/14 03:04:17;;;;;;;5.05;1.80;;;;;;;;;;5032759;28;20044;-84
2022/06/14 03:06:52;;;;;;;7.15;1.90;;;;;;;;;;5047325;28;20049;-86
2022/06/14 03:09:23;;;;;;;3.80;1.73;;;;;;;;;;5038789;28;20065;-85
2022/06/14 03:12:07;;;;;;;2.33;1.65;;;;;;;;;;5039659;28;20029;-84
2022/06/14 03:14:52;;;;;;;3.97;1.70;;;;;;;;;;5039929;28;20448;-85
2022/06/14 03:17:37;;;;;;;5.55;1.88;;;;;;;;;;5039476;28;20040;-86
2022/06/14 03:20:12;;;;;;;5.18;1.70;;;;;;;;;;5039927;28;20063;-85
2022/06/14 03:22:51;;;;;;;4.65;1.90;;;;;;;;;;5045387;28;20029;-86
2022/06/14 03:25:35;;;;;;;5.57;2.10;;;;;;;;;;5037792;28;20037;-86
2022/06/14 03:28:23;;;;;;;4.22;2.00;;;;;;;;;;5039236;28;20033;-85
2022/06/14 03:31:08;;;;;;;3.20;1.75;;;;;;;;;;5038966;28;20030;-86
2022/06/14 03:33:51;;;;;;;3.83;1.85;;;;;;;;;;5038992;28;20033;-84
2022/06/14 03:36:17;;;;;;;3.97;1.60;;;;;;;;;;5035984;28;20091;-85
2022/06/14 03:38:54;;;;;;;2.80;1.70;;;;;;;;;;5038429;28;20034;-85
2022/06/14 03:41:25;;;;;;;3.90;2.00;;;;;;;;;;5038523;28;20498;-84
2022/06/14 03:43:52;;;;;;;4.05;1.75;;;;;;;;;;5036884;28;20120;-85
2022/06/14 03:46:20;;;;;;;3.33;1.77;;;;;;;;;;5036416;28;20536;-85
2022/06/14 03:48:54;;;;;;;4.03;1.80;;;;;;;;;;5020286;28;20120;-85
2022/06/14 03:51:19;;;;;;;;;;;;;;;;;;5038545;28;20036;-85
2022/06/14 03:54:10;;;;;;;5.50;1.83;;;;;;;;;;5035885;28;19909;-85
2022/06/14 03:57:04;;;;;;;3.00;2.03;;;;;;;;;;5037709;28;20160;-85
2022/06/14 03:59:51;;;;;;;3.13;1.70;;;;;;;;;;5034185;28;20045;-86
2022/06/14 04:02:52;;;;;;;3.13;1.92;;;;;;;;;;5035098;28;20037;-86
2022/06/14 04:05:56;;;;;;;5.60;1.52;;;;;;;;;;5033182;28;20037;-85
2022/06/14 04:08:28;;;;;;;4.43;1.73;;;;;;;;;;5019767;28;20137;-85
2022/06/14 04:11:26;;;;;;;6.45;1.50;;;;;;;;;;5034812;28;20041;-86
2022/06/14 04:14:29;;;;;;;4.82;1.80;;;;;;;;;;5030842;28;20061;-86
2022/06/14 04:17:12;;;;;;;3.78;1.92;;;;;;;;;;5045098;28;20045;-84
2022/06/14 04:19:50;;;;;;;6.15;2.13;;;;;;;;;;5045119;28;20065;-84
2022/06/14 04:22:28;;;;;;;4.10;1.90;;;;;;;;;;5039835;28;20040;-87
2022/06/14 04:25:13;;;;;;;3.42;1.85;;;;;;;;;;5039263;28;20029;-86
2022/06/14 04:27:52;;;;;;;2.80;1.90;;;;;;;;;;5040239;28;20033;-85
2022/06/14 04:30:57;;;;;;;3.15;1.80;;;;;;;;;;5038479;28;20544;-85
2022/06/14 04:33:41;;;;;;;5.60;3.20;;;;;;;;;;5037581;28;20120;-85
2022/06/14 04:36:18;;;;;;;;;;;;;;;;;;5035208;28;20080;-84
2022/06/14 04:39:04;;;;;;;5.03;2.20;;;;;;;;;;5036974;28;19917;-85
2022/06/14 04:41:36;;;;;;;6.00;2.30;;;;;;;;;;5037020;28;20038;-87
2022/06/14 04:44:13;;;;;;;5.13;2.60;;;;;;;;;;5036975;28;20045;-86
2022/06/14 04:46:47;;;;;;;4.72;2.10;;;;;;;;;;5038976;28;20037;-86
2022/06/14 04:49:19;;;;;;;4.30;1.90;;;;;;;;;;5037253;28;20128;-86
2022/06/14 04:51:56;;;;;;;2.78;1.90;;;;;;;;;;5038505;28;20034;-86
2022/06/14 04:54:33;;;;;;;8.27;2.00;;;;;;;;;;5037481;28;20037;-86
2022/06/14 04:57:08;;;;;;;7.63;1.92;;;;;;;;;;5036673;28;20107;-86
2022/06/14 04:59:55;;;;;;;3.10;1.73;;;;;;;;;;5035406;28;20034;-85
2022/06/14 05:02:27;;;;;;;5.43;1.80;;;;;;;;;;5037254;28;20041;-85
2022/06/14 05:05:05;;;;;;;4.50;2.10;;;;;;;;;;5044397;28;20126;-85
2022/06/14 05:07:37;;;;;;;3.65;1.80;;;;;;;;;;5037740;28;20029;-86
2022/06/14 05:10:16;;;;;;;4.25;2.00;;;;;;;;;;5038322;28;20041;-86
2022/06/14 05:12:52;;;;;;;2.83;1.85;;;;;;;;;;5038940;28;20255;-85
2022/06/14 05:15:33;;;;;;;5.35;2.08;;;;;;;;;;5037904;28;20041;-86
2022/06/14 05:18:10;;;;;;;4.53;2.10;;;;;;;;;;5024379;28;20050;-85
2022/06/14 05:20:46;;;;;;;3.60;1.75;;;;;;;;;;5019884;28;20037;-86
2022/06/14 05:23:23;;;;;;;5.82;2.20;;;;;;;;;;5034813;28;20048;-86
2022/06/14 05:26:12;;;;;;;3.42;1.70;;;;;;;;;;5030558;28;20072;-87
2022/06/14 05:29:03;;;;;;;3.70;1.85;;;;;;;;;;5037961;28;20061;-87
2022/06/14 05:31:52;;;;;;;2.67;1.60;;;;;;;;;;5016963;28;20042;-85
2022/06/14 05:34:32;;;;;;;4.90;1.65;;;;;;;;;;5021142;28;20068;-86
2022/06/14 05:37:11;;;;;;;3.67;1.60;;;;;;;;;;5021885;28;20042;-86
2022/06/14 05:40:01;;;;;;;4.90;1.90;;;;;;;;;;5021335;28;20056;-86
2022/06/14 05:42:34;;;;;;;5.05;1.60;;;;;;;;;;5020582;28;20034;-87
2022/06/14 05:45:01;;;;;;;;;;;;;;;;;;5020770;28;20041;-88
2022/06/14 05:47:37;;;;;;;4.35;1.65;;;;;;;;;;5019188;28;19913;-87
2022/06/14 05:50:27;;;;;;;4.25;1.63;;;;;;;;;;5019413;28;20042;-85
2022/06/14 05:52:58;;;;;;;4.20;1.75;;;;;;;;;;5019744;28;20061;-86
2022/06/14 05:55:35;;;;;;;3.60;1.50;;;;;;;;;;5019462;28;20042;-87
2022/06/14 05:58:10;;;;;;;6.60;1.65;;;;;;;;;;5019214;28;20477;-87
2022/06/14 06:00:55;;;;;;;3.90;1.58;;;;;;;;;;5019991;28;20552;-89
2022/06/14 06:03:49;;;;;;;3.58;1.67;;;;;;;;;;5020640;28;20029;-86
2022/06/14 06:06:21;;;;;;;5.38;1.83;;;;;;;;;;5020599;28;20030;-88
2022/06/14 06:08:55;;;;;;;3.83;1.80;;;;;;;;;;5016754;28;20048;-86
2022/06/14 06:11:27;;;;;;;6.28;1.77;;;;;;;;;;4999731;28;20044;-87
2022/06/14 06:14:01;;;;;;;4.37;1.67;;;;;;;;;;5026676;28;20133;-88
2022/06/14 06:16:45;;;;;;;;;;;;;;;;;;5022777;28;20065;-86
2022/06/14 06:19:18;;;;;;;5.15;1.60;;;;;;;;;;5058303;22;19947;-86
2022/06/14 06:22:08;;;;;;;3.95;1.60;;;;;;;;;;5085442;28;20488;-86
2022/06/14 06:24:34;;;;;;;5.22;1.70;;;;;;;;;;5084651;28;20044;-86
2022/06/14 06:27:07;;;;;;;3.10;1.60;;;;;;;;;;5083401;28;20028;-86
2022/06/14 06:29:38;;;;;;;5.97;1.77;;;;;;;;;;5081070;28;20060;-86
2022/06/14 06:32:06;;;;;;;4.65;1.83;;;;;;;;;;5081580;28;20435;-89
2022/06/14 06:34:32;;;;;;;4.45;1.80;;;;;;;;;;5081877;28;20044;-85
2022/06/14 06:37:01;;;;;;;3.10;1.60;;;;;;;;;;5080739;28;20029;-86
2022/06/14 06:39:42;;;;;;;4.22;1.90;;;;;;;;;;5082960;28;20102;-86
2022/06/14 06:42:25;;;;;;;4.53;1.90;;;;;;;;;;5083304;28;20036;-86
2022/06/14 06:44:55;;;;;;;4.03;1.63;;;;;;;;;;5083144;28;20033;-88
2022/06/14 06:47:28;;;;;;;5.38;1.70;;;;;;;;;;5082938;28;20058;-88
2022/06/14 06:49:57;;;;;;;4.38;1.70;;;;;;;;;;5081888;28;20155;-88
2022/06/14 06:52:33;;;;;;;4.82;1.83;;;;;;;;;;5083668;28;20020;-87
2022/06/14 06:55:07;;;;;;;5.43;1.70;;;;;;;;;;5081041;28;20028;-87
2022/06/14 06:57:35;;;;;;;4.38;1.67;;;;;;;;;;5080872;28;20556;-87
2022/06/14 07:00:04;;;;;;;5.80;1.83;;;;;;;;;;5081567;28;20028;-87
2022/06/14 07:02:42;;;;;;;3.30;1.58;;;;;;;;;;5081590;28;20064;-87
2022/06/14 07:05:14;;;;;;;6.50;1.70;;;;;;;;;;5080024;28;20036;-87
2022/06/14 07:07:58;;;;;;;3.67;1.63;;;;;;;;;;5079019;28;20028;-87
2022/06/14 07:10:42;;;;;;;5.80;1.80;;;;;;;;;;5078190;28;20040;-87
2022/06/14 07:13:17;;;;;;;5.35;1.63;;;;;;;;;;5077470;28;20032;-87
2022/06/14 07:15:49;;;;;;;6.30;2.20;;;;;;;;;;5078310;28;20024;-87
2022/06/14 07:18:31;;;;;;;6.38;1.85;;;;;;;;;;5077949;28;20500;-87
2022/06/14 07:21:14;;;;;;;5.28;1.88;;;;;;;;;;5078400;28;20012;-87
2022/06/14 07:23:43;;;;;;;4.82;1.88;;;;;;;;;;5078178;28;20037;-88
2022/06/14 07:26:15;;;;;;;4.60;1.90;;;;;;;;;;5078059;28;20047;-88
2022/06/14 07:28:45;;;;;;;4.33;1.90;;;;;;;;;;5078660;28;20125;-87
2022/06/14 07:31:28;;;;;;;7.75;1.85;;;;;;;;;;5078036;28;20072;-89
2022/06/14 07:33:54;;;;;;;;;;;;;;;;;;5074481;28;20029;-87
2022/06/14 07:36:44;;;;;;;5.65;1.67;;;;;;;;;;5074546;28;19939;-87
2022/06/14 07:39:20;;;;;;;5.28;2.13;;;;;;;;;;5083248;28;20040;-87
2022/06/14 07:41:51;;;;;;;6.03;2.00;;;;;;;;;;5084176;28;20062;-87
2022/06/14 07:44:24;;;;;;;6.43;2.20;;;;;;;;;;5078161;28;20036;-87
2022/06/14 07:46:53;;;;;;;4.18;1.77;;;;;;;;;;5076871;28;20033;-89
2022/06/14 07:49:52;;;;;;;5.40;1.88;;;;;;;;;;5074502;28;20047;-87
2022/06/14 07:52:26;;;;;;;4.55;2.20;;;;;;;;;;5061049;28;20477;-84
2022/06/14 07:55:01;;;;;;;4.43;1.83;;;;;;;;;;5080239;28;20036;-85
2022/06/14 07:57:38;;;;;;;3.58;1.95;;;;;;;;;;5080706;28;20028;-85
2022/06/14 08:03:06;;;;;;;6.70;2.10;;;;;;;;;;5080041;28;20100;-86
2022/06/14 08:05:37;;;;;;;4.10;1.90;;;;;;;;;;5081847;28;20024;-85
2022/06/14 08:08:06;;;;;;;4.80;1.80;;;;;;;;;;5080648;28;20039;-86
2022/06/14 08:10:37;;;;;;;4.57;1.92;;;;;;;;;;5077697;28;20485;-86
2022/06/14 08:13:09;;;;;;;5.20;1.70;;;;;;;;;;5078283;28;20064;-86
2022/06/14 08:15:36;;;;;;;4.88;2.00;;;;;;;;;;5077219;28;20029;-87
2022/06/14 08:18:05;;;;;;;5.40;1.98;;;;;;;;;;5078929;28;20032;-85
2022/06/14 08:20:37;;;;;;;7.03;1.90;;;;;;;;;;5077150;28;20040;-86
2022/06/14 08:23:08;;;;;;;3.55;1.67;;;;;;;;;;5077310;28;20078;-86
2022/06/14 08:25:40;;;;;;;5.80;2.00;;;;;;;;;;5078285;28;20492;-87
2022/06/14 08:28:25;;;;;;;5.72;2.20;;;;;;;;;;5076808;28;20067;-87
2022/06/14 08:30:59;;;;;;;8.07;2.20;;;;;;;;;;5078019;28;20057;-85
2022/06/14 08:33:40;;;;;;;5.45;2.30;;;;;;;;;;5078622;28;20047;-86
2022/06/14 08:36:09;;;;;;;5.40;2.00;;;;;;;;;;5078184;28;20032;-86
2022/06/14 08:38:49;;;;;;;5.65;2.00;;;;;;;;;;5078375;28;20515;-87
2022/06/14 08:41:33;;;;;;;5.80;2.45;;;;;;;;;;5077405;28;20040;-86
2022/06/14 08:44:19;;;;;;;5.40;1.98;;;;;;;;;;5076270;28;20401;-86
2022/06/14 08:46:51;;;;;;;4.57;1.85;;;;;;;;;;5075419;28;20052;-86
2022/06/14 08:49:44;;;;;;;5.00;2.05;;;;;;;;;;5077670;28;20032;-87
2022/06/14 08:52:41;;;;;;;4.18;2.03;;;;;;;;;;5076627;28;20036;-86
2022/06/14 08:55:12;;;;;;;6.85;2.30;;;;;;;;;;5075312;28;20064;-86
2022/06/14 08:57:55;;;;;;;5.20;2.25;;;;;;;;;;5076984;28;20148;-87
2022/06/14 09:00:59;;;;;;;6.82;1.98;;;;;;;;;;5076317;28;20162;-87
2022/06/14 09:03:43;;;;;;;6.82;2.30;;;;;;;;;;5017740;28;20037;-86
2022/06/14 09:06:33;;;;;;;5.70;2.50;;;;;;;;;;5017156;28;20548;-86
2022/06/14 09:09:32;;;;;;;7.82;2.10;;;;;;;;;;5066770;28;20131;-89
2022/06/14 09:12:10;;;;;;;4.40;2.00;;;;;;;;;;5076261;28;20382;-86
2022/06/14 09:14:51;;;;;;;5.70;2.33;;;;;;;;;;5076654;28;20040;-86
2022/06/14 09:17:53;;;;;;;5.45;2.20;;;;;;;;;;5078280;28;20112;-87
2022/06/14 09:20:59;;;;;;;5.10;2.00;;;;;;;;;;5076925;28;20040;-87
2022/06/14 09:23:49;;;;;;;5.30;1.90;;;;;;;;;;5076731;28;20037;-87
2022/06/14 09:26:23;;;;;;;4.20;2.03;;;;;;;;;;5075948;28;20047;-86
2022/06/14 09:29:08;;;;;;;4.97;1.88;;;;;;;;;;5077027;28;20067;-87
2022/06/14 09:31:52;;;;;;;6.10;2.15;;;;;;;;;;5078451;28;20111;-87
2022/06/14 09:34:26;;;;;;;5.28;2.25;;;;;;;;;;5077589;28;20048;-86
2022/06/14 09:37:17;;;;;;;8.82;2.25;;;;;;;;;;5077614;28;20040;-86
2022/06/14 09:39:51;;;;;;;4.45;2.08;;;;;;;;;;5076451;28;20084;-86
2022/06/14 09:42:17;;;;;;;6.40;2.40;;;;;;;;;;5078053;28;20055;-86
2022/06/14 09:45:26;;;;;;;9.35;2.30;;;;;;;;;;5076791;28;20393;-86
2022/06/14 09:48:29;;;;;;;6.18;2.30;;;;;;;;;;5077952;28;20519;-87
2022/06/14 09:51:05;;;;;;;6.30;2.35;;;;;;;;;;5077435;28;20086;-87
2022/06/14 09:53:54;;;;;;;7.93;2.22;;;;;;;;;;5078345;28;20076;-87
2022/06/14 09:56:39;;;;;;;4.90;2.30;;;;;;;;;;5077321;28;20039;-86
2022/06/14 09:59:07;;;;;;;5.53;2.20;;;;;;;;;;5074923;28;20036;-86
2022/06/14 10:01:51;;;;;;;10.70;2.20;;;;;;;;;;5075563;28;20021;-86
2022/06/14 10:04:59;;;;;;;5.05;2.08;;;;;;;;;;5077231;28;20033;-86
2022/06/14 10:07:34;;;;;;;5.63;1.80;;;;;;;;;;5072118;28;20048;-87
2022/06/14 10:10:45;;;;;;;5.55;2.05;;;;;;;;;;5076715;28;20040;-86
2022/06/14 10:13:41;;;;;;;7.80;2.38;;;;;;;;;;5077786;28;20157;-86
2022/06/14 10:16:44;;;;;;;5.03;2.03;;;;;;;;;;5081950;28;20037;-87
2022/06/14 10:19:28;;;;;;;4.65;2.13;;;;;;;;;;5069762;28;20048;-87
2022/06/14 10:22:24;;;;;;;4.43;2.25;;;;;;;;;;5083810;28;20033;-87
2022/06/14 10:25:14;;;;;;;6.22;2.10;;;;;;;;;;5083306;28;20083;-87
2022/06/14 10:28:12;;;;;;;5.75;2.20;;;;;;;;;;5080124;28;20481;-87
2022/06/14 10:31:01;;;;;;;6.53;2.10;;;;;;;;;;5082177;28;20032;-87
2022/06/14 10:33:46;;;;;;;5.80;1.90;;;;;;;;;;5081256;28;20029;-87
2022/06/14 10:36:33;;;;;;;5.35;1.95;;;;;;;;;;5080687;28;20132;-87
2022/06/14 10:39:05;;;;;;;6.28;2.13;;;;;;;;;;5080458;28;20033;-86
2022/06/14 10:41:49;;;;;;;5.07;1.73;;;;;;;;;;5080337;28;20100;-87
2022/06/14 10:44:27;;;;;;;3.47;2.08;;;;;;;;;;5080551;28;20043;-87
2022/06/14 10:47:23;;;;;;;4.75;1.90;;;;;;;;;;5081140;28;20102;-87
2022/06/14 10:50:26;;;;;;;5.05;1.92;;;;;;;;;;5080337;28;20094;-87
2022/06/14 10:53:05;;;;;;;5.40;1.88;;;;;;;;;;5080090;28;20221;-87
2022/06/14 10:55:49;;;;;;;4.80;1.92;;;;;;;;;;5078587;28;20040;-88
2022/06/14 10:59:10;;;;;;;3.85;1.95;;;;;;;;;;5081042;28;20024;-88
2022/06/14 11:02:06;;;;;;;7.78;2.10;;;;;;;;;;5039312;28;20451;-85
2022/06/14 11:04:35;;;;;;;2.65;1.48;;;;;;;;;;5080812;28;20052;-86
2022/06/14 11:07:06;;;;;;;5.32;1.90;;;;;;;;;;5082190;28;20047;-87
2022/06/14 11:09:39;;;;;;;4.85;1.83;;;;;;;;;;5064208;28;20511;-86
2022/06/14 11:12:22;;;;;;;4.75;1.95;;;;;;;;;;5083437;28;20043;-86
2022/06/14 11:14:47;;;;;;;;;;;;;;;;;;5083290;28;20043;-85
2022/06/14 11:17:35;;;;;;;4.75;1.90;;;;;;;;;;5083462;28;19916;-87
2022/06/14 11:20:31;;;;;;;5.90;1.60;;;;;;;;;;5080913;28;20031;-87
2022/06/14 11:23:32;;;;;;;5.05;1.73;;;;;;;;;;5081848;28;20037;-87
2022/06/14 11:26:18;;;;;;;3.90;1.80;;;;;;;;;;5067145;28;20170;-86
2022/06/14 11:28:50;;;;;;;5.57;1.88;;;;;;;;;;5081023;28;20086;-86
2022/06/14 11:31:36;;;;;;;3.90;1.90;;;;;;;;;;5080520;28;20033;-87
2022/06/14 11:34:17;;;;;;;5.53;1.90;;;;;;;;;;5080437;28;20112;-87
2022/06/14 11:37:07;;;;;;;5.03;2.00;;;;;;;;;;5080482;28;20036;-87
2022/06/14 11:39:39;;;;;;;6.78;2.05;;;;;;;;;;5081727;28;20033;-86
2022/06/14 11:42:12;;;;;;;4.90;1.80;;;;;;;;;;5079408;28;20082;-87
2022/06/14 11:44:40;;;;;;;2.88;1.73;;;;;;;;;;5080390;28;20123;-87
2022/06/14 11:47:16;;;;;;;4.50;1.80;;;;;;;;;;5080501;28;20028;-87
2022/06/14 11:49:50;;;;;;;4.45;1.80;;;;;;;;;;5080310;28;20036;-87
2022/06/14 11:52:41;;;;;;;4.50;1.80;;;;;;;;;;5081154;28;20029;-86
2022/06/14 11:55:06;;;;;;;4.18;1.90;;;;;;;;;;5081271;28;20033;-87
2022/06/14 11:57:35;;;;;;;3.50;1.70;;;;;;;;;;5082942;28;20043;-86
2022/06/14 12:00:00;;;;;;;5.72;1.83;;;;;;;;;;5082653;28;20043;-87
2022/06/14 12:02:38;;;;;;;5.43;1.77;;;;;;;;;;5083224;28;20028;-86
2022/06/14 12:05:13;;;;;;;5.18;1.90;;;;;;;;;;5082484;28;20047;-86
2022/06/14 12:07:46;;;;;;;3.95;1.80;;;;;;;;;;5083306;28;20028;-87
2022/06/14 12:10:36;;;;;;;3.10;1.50;;;;;;;;;;5082367;28;20039;-86
2022/06/14 12:13:11;;;;;;;3.72;1.77;;;;;;;;;;5081908;28;20040;-86
2022/06/14 12:15:40;;;;;;;4.53;1.67;;;;;;;;;;5080728;28;20056;-87
2022/06/14 12:18:09;;;;;;;3.78;1.65;;;;;;;;;;5082139;28;20086;-87
2022/06/14 12:20:44;;;;;;;4.25;1.60;;;;;;;;;;5080934;22;20049;-87
2022/06/14 12:23:23;;;;;;;3.45;1.52;;;;;;;;;;5063534;28;20041;-86
2022/06/14 12:29:13;;;;;;;6.95;2.08;;;;;;;;;;5056589;28;20544;-87
2022/06/14 12:31:48;;;;;;;3.58;1.60;;;;;;;;;;5020042;28;20060;-86
2022/06/14 12:34:46;;;;;;;3.83;1.50;;;;;;;;;;5038485;28;20048;-86
2022/06/14 12:37:26;;;;;;;3.70;1.70;;;;;;;;;;5029868;28;20053;-86
2022/06/14 12:40:14;;;;;;;4.57;1.75;;;;;;;;;;5039047;28;20048;-85
2022/06/14 12:42:58;;;;;;;5.63;1.65;;;;;;;;;;5039035;28;20469;-86
2022/06/14 12:45:33;;;;;;;3.08;1.83;;;;;;;;;;5038527;28;20056;-86
2022/06/14 12:48:15;;;;;;;4.82;1.92;;;;;;;;;;5044602;28;20049;-86
2022/06/14 12:50:46;;;;;;;3.58;1.75;;;;;;;;;;5039966;28;20083;-86
2022/06/14 12:53:33;;;;;;;6.25;1.80;;;;;;;;;;5039026;28;20065;-86
2022/06/14 12:56:05;;;;;;;4.32;1.70;;;;;;;;;;5039040;28;20087;-85
2022/06/14 12:58:48;;;;;;;3.58;1.80;;;;;;;;;;5038706;28;20064;-86
2022/06/14 13:01:24;;;;;;;4.72;1.85;;;;;;;;;;5021538;28;20033;-85
2022/06/14 13:04:18;;;;;;;3.60;1.75;;;;;;;;;;5037549;28;20057;-83
2022/06/14 13:07:19;;;;;;;3.38;1.95;;;;;;;;;;5019096;28;20110;-86
2022/06/14 13:10:03;;;;;;;8.70;2.22;;;;;;;;;;5016329;28;20076;-85
2022/06/14 13:12:48;;;;;;;3.70;1.75;;;;;;;;;;5036899;28;20074;-85
2022/06/14 13:15:28;;;;;;;3.47;1.75;;;;;;;;;;5035810;28;20489;-85
2022/06/14 13:18:46;;;;;;;2.90;1.55;;;;;;;;;;5038033;28;20033;-85
2022/06/14 13:21:17;;;;;;;4.30;1.80;;;;;;;;;;5019469;28;20052;-85
2022/06/14 13:24:04;;;;;;;4.70;1.88;;;;;;;;;;5034035;28;20412;-85
2022/06/14 13:26:49;;;;;;;5.50;1.98;;;;;;;;;;5032331;28;20413;-85
2022/06/14 13:29:29;;;;;;;4.30;1.95;;;;;;;;;;5033193;28;20092;-85
2022/06/14 13:32:23;;;;;;;4.60;1.80;;;;;;;;;;5041937;28;20038;-86
2022/06/14 13:34:57;;;;;;;5.63;1.70;;;;;;;;;;5020076;28;20044;-86
2022/06/14 13:37:49;;;;;;;6.43;1.90;;;;;;;;;;5041094;28;20036;-87
2022/06/14 13:40:48;;;;;;;3.25;1.60;;;;;;;;;;5037631;28;20108;-87
2022/06/14 13:43:28;;;;;;;3.85;1.80;;;;;;;;;;5044059;28;20030;-86
2022/06/14 13:46:00;;;;;;;3.90;1.80;;;;;;;;;;5040065;28;20473;-85
2022/06/14 13:48:46;;;;;;;6.13;1.80;;;;;;;;;;5041095;28;20494;-87
2022/06/14 13:51:28;;;;;;;3.50;1.80;;;;;;;;;;5044453;28;20033;-87
2022/06/14 13:54:06;;;;;;;3.45;1.63;;;;;;;;;;5045153;28;20053;-85
2022/06/14 13:56:45;;;;;;;6.55;1.80;;;;;;;;;;5044452;28;20049;-85
2022/06/14 13:59:23;;;;;;;4.70;1.60;;;;;;;;;;5041572;28;20532;-88
2022/06/14 14:02:08;;;;;;;2.95;1.80;;;;;;;;;;5041200;28;20037;-85
2022/06/14 14:04:43;;;;;;;5.57;1.80;;;;;;;;;;5040929;28;20044;-86
2022/06/14 14:07:24;;;;;;;4.13;1.60;;;;;;;;;;5043359;28;20030;-85
2022/06/14 14:09:52;;;;;;;6.05;2.00;;;;;;;;;;5041363;28;20034;-86
2022/06/14 14:12:25;;;;;;;3.15;1.80;;;;;;;;;;5041069;28;20187;-87
2022/06/14 14:15:25;;;;;;;3.67;1.58;;;;;;;;;;5022550;28;20096;-87
2022/06/14 14:17:56;;;;;;;4.65;1.80;;;;;;;;;;5044038;28;20029;-86
2022/06/14 14:20:49;;;;;;;5.05;1.80;;;;;;;;;;5043866;28;20405;-86
2022/06/14 14:23:56;;;;;;;5.47;1.60;;;;;;;;;;5043104;28;20509;-86
2022/06/14 14:26:29;;;;;;;3.72;1.80;;;;;;;;;;5002439;28;20038;-86
2022/06/14 14:29:10;;;;;;;5.90;1.90;;;;;;;;;;5042218;28;20045;-87
2022/06/14 14:31:42;;;;;;;4.53;1.75;;;;;;;;;;5047733;28;20095;-86
2022/06/14 14:34:16;;;;;;;4.65;1.77;;;;;;;;;;5048114;28;20547;-87
2022/06/14 14:36:49;;;;;;;5.63;1.80;;;;;;;;;;5047405;28;20064;-85
2022/06/14 14:39:20;;;;;;;3.33;1.60;;;;;;;;;;5040949;28;20044;-84
2022/06/14 14:42:18;;;;;;;6.60;1.80;;;;;;;;;;5047196;28;20773;-84
2022/06/14 14:44:55;;;;;;;3.70;1.80;;;;;;;;;;5043777;28;20029;-86
2022/06/14 14:47:31;;;;;;;3.88;1.65;;;;;;;;;;5043327;28;20076;-86
2022/06/14 14:50:16;;;;;;;4.28;1.52;;;;;;;;;;5044136;28;20052;-86
2022/06/14 14:52:55;;;;;;;11.90;2.20;;;;;;;;;;5043965;28;20071;-85
2022/06/14 14:55:39;;;;;;;5.32;1.90;;;;;;;;;;5049377;28;20025;-87
2022/06/14 14:58:16;;;;;;;10.88;2.00;;;;;;;;;;5046205;28;20033;-87
2022/06/14 15:06:48;;;;;;;15.70;2.38;;;;;;;;;;5047420;28;20041;-87
2022/06/14 15:09:25;;;;;;;5.68;1.98;;;;;;;;;;5046884;28;20128;-87
2022/06/14 15:11:54;;;;;;;5.28;1.60;;;;;;;;;;5047800;28;20048;-86
2022/06/14 15:14:25;;;;;;;3.28;1.60;;;;;;;;;;5046866;28;20021;-87
2022/06/14 15:19:54;;;;;;;3.47;1.67;;;;;;;;;;5047687;28;20076;-86
2022/06/14 15:22:43;;;;;;;4.07;1.80;;;;;;;;;;5048958;28;20056;-87
2022/06/14 15:25:25;;;;;;;6.93;2.00;;;;;;;;;;5046709;28;20033;-86
2022/06/14 15:27:53;;;;;;;6.07;1.80;;;;;;;;;;5048663;28;20112;-86
2022/06/14 15:30:44;;;;;;;7.93;2.10;;;;;;;;;;5048143;28;20091;-86
2022/06/14 15:33:22;;;;;;;3.28;1.65;;;;;;;;;;5048667;28;20052;-86
2022/06/14 15:35:53;;;;;;;7.65;1.88;;;;;;;;;;5044680;28;20041;-85
2022/06/14 15:38:29;;;;;;;7.97;2.50;;;;;;;;;;5043572;28;20082;-86
2022/06/14 15:41:15;;;;;;;6.75;1.83;;;;;;;;;;5043551;28;20480;-86
2022/06/14 15:43:53;;;;;;;5.13;1.90;;;;;;;;;;5038029;28;20033;-86
2022/06/14 15:46:24;;;;;;;2.95;1.70;;;;;;;;;;5036828;28;20087;-83
2022/06/14 15:49:12;;;;;;;5.88;2.00;;;;;;;;;;5035764;28;20036;-86
2022/06/14 15:51:38;;;;;;;4.15;1.73;;;;;;;;;;5034014;28;20041;-84
2022/06/14 15:54:06;;;;;;;4.97;1.70;;;;;;;;;;5047075;28;20089;-85
2022/06/14 15:56:42;;;;;;;6.68;1.80;;;;;;;;;;5047913;28;20057;-85
2022/06/14 15:59:38;;;;;;;5.55;2.05;;;;;;;;;;5049830;28;20048;-84
2022/06/14 16:02:29;;;;;;;7.35;2.03;;;;;;;;;;5050698;28;20044;-85
2022/06/14 16:04:58;;;;;;;5.25;1.88;;;;;;;;;;5049897;28;20060;-85
2022/06/14 16:07:36;;;;;;;3.38;1.90;;;;;;;;;;5050625;28;20028;-85
2022/06/14 16:10:09;;;;;;;5.72;2.10;;;;;;;;;;5048808;28;20033;-86
2022/06/14 16:12:49;;;;;;;4.95;2.30;;;;;;;;;;5030980;28;20068;-86
2022/06/14 16:15:20;;;;;;;8.07;1.85;;;;;;;;;;5048313;28;20037;-87